Time;durP1;ratioP1;P1;durP2;ratioP2;P2;SDS_P1;SDS_P2;PMS_P1;PMS_P2;Temp;Humidity;BMP_temperature;BMP_pressure;BME280_temperature;BME280_humidity;BME280_pressure;Samples;Min_cycle;Max_cycle;Signal;HPM_P1;HPM_P2
2024/02/25 00:01:45;;;;;;;2.83;1.42;;;;;;;;;;5056940;28;20052;-71
2024/02/25 00:04:12;;;;;;;2.97;1.55;;;;;;;;;;5076045;28;20597;-70
2024/02/25 00:06:40;;;;;;;2.65;1.40;;;;;;;;;;5076192;28;20105;-71
2024/02/25 00:09:07;;;;;;;2.65;1.40;;;;;;;;;;5075246;28;20395;-70
2024/02/25 00:11:33;;;;;;;2.60;1.30;;;;;;;;;;5078383;28;20090;-71
2024/02/25 00:14:00;;;;;;;3.88;1.42;;;;;;;;;;5048902;28;20056;-70
2024/02/25 00:16:26;;;;;;;3.88;1.30;;;;;;;;;;5112635;27;20438;-71
2024/02/25 00:18:53;;;;;;;3.20;1.30;;;;;;;;;;5067742;28;20243;-71
2024/02/25 00:21:19;;;;;;;2.00;1.15;;;;;;;;;;5067125;28;20075;-70
2024/02/25 00:23:46;;;;;;;7.10;1.45;;;;;;;;;;5066780;28;20048;-71
2024/02/25 00:26:12;;;;;;;1.90;1.15;;;;;;;;;;5078779;28;20078;-70
2024/02/25 00:28:39;;;;;;;4.40;1.15;;;;;;;;;;5075873;28;20964;-72
2024/02/25 00:31:05;;;;;;;2.88;1.15;;;;;;;;;;5075296;28;20059;-70
2024/02/25 00:33:32;;;;;;;4.15;1.17;;;;;;;;;;5071023;28;20041;-69
2024/02/25 00:35:59;;;;;;;3.60;1.50;;;;;;;;;;5087701;28;20453;-71
2024/02/25 00:38:25;;;;;;;4.47;1.40;;;;;;;;;;5072257;28;20048;-71
2024/02/25 00:40:52;;;;;;;3.33;1.08;;;;;;;;;;5070369;28;20487;-69
2024/02/25 00:43:26;;;;;;;3.15;1.17;;;;;;;;;;5060180;28;20098;-71
2024/02/25 00:45:53;;;;;;;2.47;1.00;;;;;;;;;;5059881;28;20056;-70
2024/02/25 00:48:19;;;;;;;3.90;1.35;;;;;;;;;;5077266;28;20051;-71
2024/02/25 00:50:46;;;;;;;1.88;1.08;;;;;;;;;;5071670;28;20056;-71
2024/02/25 00:53:14;;;;;;;3.72;1.13;;;;;;;;;;5060145;28;20071;-73
2024/02/25 00:55:41;;;;;;;1.50;0.70;;;;;;;;;;5082425;28;20048;-71
2024/02/25 00:58:07;;;;;;;2.15;0.95;;;;;;;;;;5069283;28;20071;-71
2024/02/25 01:00:33;;;;;;;3.50;1.10;;;;;;;;;;5090790;28;20172;-71
2024/02/25 01:03:00;;;;;;;4.50;1.20;;;;;;;;;;5077304;28;20051;-71
2024/02/25 01:05:26;;;;;;;3.08;1.05;;;;;;;;;;5094766;27;20063;-71
2024/02/25 01:07:53;;;;;;;1.85;1.10;;;;;;;;;;5070201;28;20085;-70
2024/02/25 01:10:19;;;;;;;3.08;1.00;;;;;;;;;;5087576;28;20454;-72
2024/02/25 01:12:46;;;;;;;2.78;1.10;;;;;;;;;;5084887;28;20079;-70
2024/02/25 01:15:12;;;;;;;2.13;1.15;;;;;;;;;;5064939;28;20071;-72
2024/02/25 01:17:38;;;;;;;3.38;1.13;;;;;;;;;;5076042;28;20109;-71
2024/02/25 01:20:05;;;;;;;1.45;0.90;;;;;;;;;;5094219;28;20128;-72
2024/02/25 01:22:32;;;;;;;3.17;1.17;;;;;;;;;;5064223;28;20097;-72
2024/02/25 01:24:59;;;;;;;2.58;0.90;;;;;;;;;;5077399;28;20605;-69
2024/02/25 01:27:25;;;;;;;2.65;1.33;;;;;;;;;;5089710;28;20123;-72
2024/02/25 01:29:52;;;;;;;6.03;1.25;;;;;;;;;;5075960;28;20064;-72
2024/02/25 01:32:18;;;;;;;4.43;1.20;;;;;;;;;;5081422;28;20408;-71
2024/02/25 01:34:45;;;;;;;1.95;1.10;;;;;;;;;;5080678;28;20137;-71
2024/02/25 01:37:12;;;;;;;3.22;1.33;;;;;;;;;;5066806;28;20045;-71
2024/02/25 01:39:39;;;;;;;2.45;1.40;;;;;;;;;;5065951;28;20048;-70
2024/02/25 01:42:07;;;;;;;7.03;1.63;;;;;;;;;;5053617;28;20040;-71
2024/02/25 01:44:36;;;;;;;;;;;;;;;;;;5071411;28;20128;-68
2024/02/25 01:47:03;;;;;;;4.35;1.20;;;;;;;;;;5077947;28;19930;-72
2024/02/25 01:49:31;;;;;;;3.17;1.13;;;;;;;;;;5088589;28;20052;-71
2024/02/25 01:51:58;;;;;;;4.13;1.10;;;;;;;;;;5069786;28;20048;-68
2024/02/25 01:54:25;;;;;;;4.57;1.33;;;;;;;;;;5078636;28;20640;-71
2024/02/25 01:56:51;;;;;;;2.80;1.02;;;;;;;;;;5054097;28;20127;-70
2024/02/25 01:59:18;;;;;;;1.67;1.20;;;;;;;;;;5065096;28;20056;-69
2024/02/25 02:01:44;;;;;;;4.95;1.58;;;;;;;;;;5064721;28;20107;-71
2024/02/25 02:04:10;;;;;;;4.18;1.20;;;;;;;;;;5065387;28;20040;-69
2024/02/25 02:06:37;;;;;;;3.92;1.20;;;;;;;;;;5081830;28;20392;-74
2024/02/25 02:09:04;;;;;;;1.63;1.00;;;;;;;;;;5083191;28;20056;-71
2024/02/25 02:11:30;;;;;;;5.53;1.30;;;;;;;;;;5063338;28;20060;-71
2024/02/25 02:13:57;;;;;;;3.35;1.52;;;;;;;;;;5066860;28;20093;-69
2024/02/25 02:16:26;;;;;;;2.58;1.38;;;;;;;;;;5046180;28;20054;-72
2024/02/25 02:18:53;;;;;;;3.58;1.23;;;;;;;;;;5086851;28;20055;-71
2024/02/25 02:21:20;;;;;;;2.17;1.42;;;;;;;;;;5093131;27;20057;-68
2024/02/25 02:23:47;;;;;;;2.83;1.35;;;;;;;;;;5059989;28;20050;-71
2024/02/25 02:26:13;;;;;;;3.28;1.48;;;;;;;;;;5077475;28;20129;-74
2024/02/25 02:28:39;;;;;;;2.85;1.38;;;;;;;;;;5078819;28;20055;-72
2024/02/25 02:31:06;;;;;;;5.70;1.70;;;;;;;;;;5078274;28;20406;-68
2024/02/25 02:33:32;;;;;;;2.80;1.27;;;;;;;;;;5070184;28;20095;-70
2024/02/25 02:35:59;;;;;;;2.72;1.20;;;;;;;;;;5091157;28;20768;-71
2024/02/25 02:38:26;;;;;;;3.35;1.55;;;;;;;;;;5079892;28;20470;-70
2024/02/25 02:40:52;;;;;;;2.13;1.00;;;;;;;;;;5070408;28;20040;-70
2024/02/25 02:43:18;;;;;;;2.30;1.30;;;;;;;;;;5075753;28;20048;-70
2024/02/25 02:45:45;;;;;;;2.25;1.13;;;;;;;;;;5056065;28;20529;-70
2024/02/25 02:48:11;;;;;;;3.50;1.20;;;;;;;;;;5066130;28;20520;-71
2024/02/25 02:50:38;;;;;;;4.85;1.50;;;;;;;;;;5063763;28;20130;-71
2024/02/25 02:53:05;;;;;;;3.08;1.30;;;;;;;;;;5073451;28;20087;-69
2024/02/25 02:55:31;;;;;;;4.50;1.27;;;;;;;;;;5067026;28;20451;-70
2024/02/25 02:57:58;;;;;;;3.00;1.50;;;;;;;;;;5077962;28;20056;-71
2024/02/25 03:00:24;;;;;;;4.25;1.67;;;;;;;;;;5058032;28;20041;-71
2024/02/25 03:02:51;;;;;;;3.33;1.40;;;;;;;;;;5081509;28;20450;-71
2024/02/25 03:05:17;;;;;;;1.90;1.30;;;;;;;;;;5072113;28;20045;-70
2024/02/25 03:07:48;;;;;;;2.58;1.40;;;;;;;;;;5074864;28;20482;-72
2024/02/25 03:10:18;;;;;;;3.08;1.52;;;;;;;;;;5067697;28;20098;-71
2024/02/25 03:12:45;;;;;;;2.17;1.35;;;;;;;;;;5060930;28;20052;-71
2024/02/25 03:15:12;;;;;;;3.58;1.60;;;;;;;;;;5078250;28;20120;-71
2024/02/25 03:17:41;;;;;;;1.73;1.25;;;;;;;;;;5069515;28;20048;-71
2024/02/25 03:20:09;;;;;;;3.90;1.58;;;;;;;;;;5093863;28;20044;-71
2024/02/25 03:22:35;;;;;;;2.20;1.42;;;;;;;;;;5096171;28;20405;-70
2024/02/25 03:25:03;;;;;;;1.63;1.40;;;;;;;;;;5089153;28;20051;-71
2024/02/25 03:27:30;;;;;;;1.85;1.60;;;;;;;;;;5085828;28;20056;-71
2024/02/25 03:29:57;;;;;;;2.30;1.13;;;;;;;;;;5054174;28;20141;-70
2024/02/25 03:32:24;;;;;;;4.05;1.80;;;;;;;;;;5070159;28;20058;-71
2024/02/25 03:34:50;;;;;;;1.40;1.10;;;;;;;;;;5075187;28;20052;-70
2024/02/25 03:37:17;;;;;;;3.08;1.27;;;;;;;;;;5083352;28;20072;-70
2024/02/25 03:39:44;;;;;;;2.83;1.27;;;;;;;;;;5111139;27;20429;-71
2024/02/25 03:42:11;;;;;;;3.70;1.30;;;;;;;;;;5108831;27;20051;-73
2024/02/25 03:44:39;;;;;;;1.45;1.10;;;;;;;;;;5057810;28;20138;-71
2024/02/25 03:47:06;;;;;;;1.35;1.20;;;;;;;;;;5084565;28;20044;-71
2024/02/25 03:49:32;;;;;;;1.58;1.00;;;;;;;;;;5086358;28;20036;-70
2024/02/25 03:51:58;;;;;;;3.03;1.10;;;;;;;;;;5061807;28;20491;-71
2024/02/25 03:54:25;;;;;;;2.03;1.15;;;;;;;;;;5065016;28;20503;-71
2024/02/25 03:56:51;;;;;;;1.30;1.00;;;;;;;;;;5079313;28;20459;-70
2024/02/25 03:59:18;;;;;;;1.60;1.00;;;;;;;;;;5061800;28;20178;-72
2024/02/25 04:01:44;;;;;;;3.90;1.13;;;;;;;;;;5076975;28;20476;-71
2024/02/25 04:04:10;;;;;;;1.88;1.23;;;;;;;;;;5060559;28;20071;-70
2024/02/25 04:06:37;;;;;;;3.33;1.02;;;;;;;;;;5082007;28;20526;-70
2024/02/25 04:09:03;;;;;;;1.45;1.00;;;;;;;;;;5076619;28;20082;-75
2024/02/25 04:11:30;;;;;;;1.33;1.00;;;;;;;;;;5068655;28;20063;-75
2024/02/25 04:13:57;;;;;;;3.78;1.30;;;;;;;;;;5073267;28;20106;-76
2024/02/25 04:16:23;;;;;;;1.80;1.02;;;;;;;;;;5050493;28;20125;-75
2024/02/25 04:18:49;;;;;;;1.73;1.10;;;;;;;;;;5078963;28;20066;-75
2024/02/25 04:21:16;;;;;;;1.10;1.00;;;;;;;;;;5079712;28;20132;-76
2024/02/25 04:23:44;;;;;;;1.20;1.10;;;;;;;;;;5079753;28;20052;-76
2024/02/25 04:26:10;;;;;;;1.57;1.00;;;;;;;;;;5075907;28;20103;-76
2024/02/25 04:28:37;;;;;;;1.98;1.10;;;;;;;;;;5070995;28;20079;-76
2024/02/25 04:31:03;;;;;;;1.60;1.08;;;;;;;;;;5080457;28;20051;-76
2024/02/25 04:33:30;;;;;;;2.08;1.20;;;;;;;;;;5073605;28;20079;-76
2024/02/25 04:35:57;;;;;;;2.45;1.25;;;;;;;;;;5091183;28;20075;-76
2024/02/25 04:38:23;;;;;;;1.05;0.95;;;;;;;;;;5083152;28;20527;-75
2024/02/25 04:40:53;;;;;;;1.00;0.95;;;;;;;;;;5063674;28;20052;-76
2024/02/25 04:43:19;;;;;;;2.03;1.10;;;;;;;;;;5071229;28;20059;-75
2024/02/25 04:45:46;;;;;;;1.10;1.00;;;;;;;;;;5056650;28;20483;-75
2024/02/25 04:48:12;;;;;;;1.27;0.90;;;;;;;;;;5078484;28;20102;-76
2024/02/25 04:50:39;;;;;;;3.00;1.35;;;;;;;;;;5054377;28;20055;-76
2024/02/25 04:53:05;;;;;;;1.73;1.10;;;;;;;;;;5066291;28;20060;-77
2024/02/25 04:55:31;;;;;;;2.42;0.82;;;;;;;;;;5072152;28;20457;-75
2024/02/25 04:57:58;;;;;;;2.80;0.95;;;;;;;;;;5076627;28;20777;-76
2024/02/25 05:00:25;;;;;;;4.43;1.08;;;;;;;;;;5071562;28;20079;-76
2024/02/25 05:02:51;;;;;;;1.40;1.02;;;;;;;;;;5054713;28;20391;-76
2024/02/25 05:05:17;;;;;;;2.17;1.00;;;;;;;;;;5076787;28;20051;-77
2024/02/25 05:07:44;;;;;;;1.30;1.10;;;;;;;;;;5052375;28;20782;-75
2024/02/25 05:10:10;;;;;;;1.95;1.15;;;;;;;;;;5076003;28;20046;-77
2024/02/25 05:12:37;;;;;;;1.00;0.90;;;;;;;;;;5064322;28;20731;-77
2024/02/25 05:15:03;;;;;;;1.52;1.30;;;;;;;;;;5066868;28;20044;-75
2024/02/25 05:17:30;;;;;;;2.03;1.30;;;;;;;;;;5077652;28;20046;-76
2024/02/25 05:19:56;;;;;;;1.55;1.20;;;;;;;;;;5077630;28;20108;-77
2024/02/25 05:22:23;;;;;;;1.85;1.23;;;;;;;;;;5088610;28;20052;-76
2024/02/25 05:24:49;;;;;;;1.55;1.00;;;;;;;;;;5076282;28;20058;-75
2024/02/25 05:27:15;;;;;;;2.15;1.23;;;;;;;;;;5083038;28;20538;-78
2024/02/25 05:29:43;;;;;;;2.05;1.35;;;;;;;;;;5084217;28;20475;-77
2024/02/25 05:32:10;;;;;;;3.78;1.38;;;;;;;;;;5068926;28;20040;-78
2024/02/25 05:34:36;;;;;;;1.83;1.25;;;;;;;;;;5067267;28;20139;-78
2024/02/25 05:37:03;;;;;;;1.83;1.35;;;;;;;;;;5082799;28;20055;-78
2024/02/25 05:39:29;;;;;;;3.58;1.40;;;;;;;;;;5073551;28;20701;-79
2024/02/25 05:41:56;;;;;;;1.98;1.15;;;;;;;;;;5072971;28;20110;-78
2024/02/25 05:44:22;;;;;;;1.52;1.20;;;;;;;;;;5058583;28;20520;-79
2024/02/25 05:46:49;;;;;;;1.80;1.25;;;;;;;;;;5079682;28;20058;-77
2024/02/25 05:49:16;;;;;;;2.17;1.65;;;;;;;;;;5061482;28;20118;-76
2024/02/25 05:51:42;;;;;;;2.35;1.55;;;;;;;;;;5072114;28;20052;-76
2024/02/25 05:54:08;;;;;;;3.53;1.50;;;;;;;;;;5065623;28;20045;-77
2024/02/25 05:56:35;;;;;;;1.60;1.20;;;;;;;;;;5058598;28;20049;-77
2024/02/25 05:59:01;;;;;;;2.28;1.50;;;;;;;;;;5071640;28;20044;-77
2024/02/25 06:01:35;;;;;;;1.45;1.30;;;;;;;;;;5061570;28;20045;-76
2024/02/25 06:04:02;;;;;;;1.80;1.50;;;;;;;;;;5075714;28;20056;-75
2024/02/25 06:06:29;;;;;;;1.25;1.15;;;;;;;;;;5080988;28;20127;-77
2024/02/25 06:08:56;;;;;;;2.22;1.65;;;;;;;;;;5080379;28;20502;-78
2024/02/25 06:11:22;;;;;;;3.80;1.70;;;;;;;;;;5064245;28;20139;-78
2024/02/25 06:13:49;;;;;;;1.80;1.30;;;;;;;;;;5065248;28;20125;-75
2024/02/25 06:16:15;;;;;;;3.58;2.03;;;;;;;;;;5066883;28;20044;-78
2024/02/25 06:18:41;;;;;;;2.50;1.40;;;;;;;;;;5080989;28;20463;-77
2024/02/25 06:21:08;;;;;;;2.33;1.50;;;;;;;;;;5045840;28;20047;-77
2024/02/25 06:23:34;;;;;;;3.60;1.80;;;;;;;;;;5075333;28;20043;-77
2024/02/25 06:26:01;;;;;;;2.90;1.73;;;;;;;;;;5079282;28;20048;-77
2024/02/25 06:28:27;;;;;;;3.10;1.60;;;;;;;;;;5070273;28;20044;-78
2024/02/25 06:30:54;;;;;;;4.90;2.00;;;;;;;;;;5067772;28;20078;-77
2024/02/25 06:33:21;;;;;;;3.10;2.00;;;;;;;;;;5076567;28;20048;-77
2024/02/25 06:35:48;;;;;;;3.67;2.00;;;;;;;;;;5053800;28;20052;-78
2024/02/25 06:38:15;;;;;;;1.83;1.50;;;;;;;;;;5069492;28;20109;-78
2024/02/25 06:40:41;;;;;;;2.30;1.85;;;;;;;;;;5072038;28;20125;-78
2024/02/25 06:43:09;;;;;;;3.88;1.70;;;;;;;;;;5051657;28;20063;-77
2024/02/25 06:45:36;;;;;;;1.98;1.60;;;;;;;;;;5088003;28;20079;-77
2024/02/25 06:48:02;;;;;;;2.45;1.85;;;;;;;;;;5072828;28;20053;-76
2024/02/25 06:50:29;;;;;;;3.25;2.00;;;;;;;;;;5055528;28;20040;-76
2024/02/25 06:52:56;;;;;;;3.08;2.20;;;;;;;;;;5077980;28;20056;-76
2024/02/25 06:55:22;;;;;;;3.25;2.33;;;;;;;;;;5069433;28;20043;-75
2024/02/25 06:57:48;;;;;;;3.50;2.40;;;;;;;;;;5076131;28;20083;-78
2024/02/25 07:00:15;;;;;;;2.65;2.08;;;;;;;;;;5075503;28;20757;-78
2024/02/25 07:02:42;;;;;;;3.25;2.10;;;;;;;;;;5064990;28;20146;-74
2024/02/25 07:05:08;;;;;;;3.50;2.40;;;;;;;;;;5084462;28;20043;-77
2024/02/25 07:07:36;;;;;;;4.28;2.72;;;;;;;;;;5098955;28;20043;-75
2024/02/25 07:10:03;;;;;;;3.27;2.50;;;;;;;;;;5085555;28;20047;-76
2024/02/25 07:12:30;;;;;;;5.30;2.70;;;;;;;;;;5073993;28;20044;-75
2024/02/25 07:14:56;;;;;;;3.60;2.63;;;;;;;;;;5081134;28;20052;-78
2024/02/25 07:17:23;;;;;;;2.55;1.92;;;;;;;;;;5084696;28;20488;-74
2024/02/25 07:19:51;;;;;;;4.50;2.67;;;;;;;;;;5071541;28;20048;-76
2024/02/25 07:22:18;;;;;;;;;;;;;;;;;;5081006;28;20055;-75
2024/02/25 07:24:44;;;;;;;4.20;2.72;;;;;;;;;;5068837;28;19928;-76
2024/02/25 07:27:11;;;;;;;4.88;2.70;;;;;;;;;;5089388;28;20074;-76
2024/02/25 07:29:37;;;;;;;4.55;2.40;;;;;;;;;;5086662;28;20055;-74
2024/02/25 07:32:04;;;;;;;4.70;2.72;;;;;;;;;;5059240;28;20494;-77
2024/02/25 07:34:30;;;;;;;4.20;2.70;;;;;;;;;;5068977;28;20035;-75
2024/02/25 07:36:57;;;;;;;3.25;2.65;;;;;;;;;;5077288;28;20388;-75
2024/02/25 07:39:23;;;;;;;3.60;2.83;;;;;;;;;;5087026;28;20055;-69
2024/02/25 07:41:49;;;;;;;4.82;2.72;;;;;;;;;;5078567;28;20167;-69
2024/02/25 07:44:16;;;;;;;5.60;2.55;;;;;;;;;;5082995;28;20140;-70
2024/02/25 07:46:43;;;;;;;3.25;2.70;;;;;;;;;;5076053;28;20076;-72
2024/02/25 07:49:09;;;;;;;4.35;2.80;;;;;;;;;;5074688;28;20499;-71
2024/02/25 07:51:36;;;;;;;3.70;2.90;;;;;;;;;;5088971;28;20048;-72
2024/02/25 07:54:03;;;;;;;5.00;2.97;;;;;;;;;;5081661;28;20055;-71
2024/02/25 07:56:29;;;;;;;3.40;2.72;;;;;;;;;;5083272;28;20048;-73
2024/02/25 07:58:56;;;;;;;4.05;3.22;;;;;;;;;;5051002;28;20404;-70
2024/02/25 08:01:22;;;;;;;4.88;3.17;;;;;;;;;;5074064;28;20052;-72
2024/02/25 08:03:48;;;;;;;4.20;2.70;;;;;;;;;;5080643;28;20066;-72
2024/02/25 08:06:23;;;;;;;4.60;2.67;;;;;;;;;;5068827;28;20492;-72
2024/02/25 08:08:50;;;;;;;4.25;2.70;;;;;;;;;;5071240;28;20080;-72
2024/02/25 08:11:16;;;;;;;4.80;3.28;;;;;;;;;;5087792;28;20510;-71
2024/02/25 08:13:43;;;;;;;6.35;2.90;;;;;;;;;;5074286;28;20131;-73
2024/02/25 08:16:09;;;;;;;4.20;2.90;;;;;;;;;;5085184;28;20062;-72
2024/02/25 08:18:36;;;;;;;4.80;3.05;;;;;;;;;;5074128;28;20051;-71
2024/02/25 08:21:03;;;;;;;5.07;3.22;;;;;;;;;;5086452;28;20514;-72
2024/02/25 08:23:30;;;;;;;3.88;3.05;;;;;;;;;;5078704;28;20136;-72
2024/02/25 08:25:56;;;;;;;6.65;3.33;;;;;;;;;;5062750;28;20117;-71
2024/02/25 08:28:23;;;;;;;5.65;3.15;;;;;;;;;;5094939;28;20127;-71
2024/02/25 08:30:50;;;;;;;6.32;3.25;;;;;;;;;;5086920;28;20159;-71
2024/02/25 08:33:16;;;;;;;4.40;3.03;;;;;;;;;;5070019;28;20049;-72
2024/02/25 08:35:43;;;;;;;3.97;2.05;;;;;;;;;;5063075;28;20583;-72
2024/02/25 08:38:09;;;;;;;2.33;1.77;;;;;;;;;;5060769;28;20052;-72
2024/02/25 08:40:37;;;;;;;3.25;2.08;;;;;;;;;;5070235;28;20091;-73
2024/02/25 08:43:04;;;;;;;4.57;2.47;;;;;;;;;;5092254;28;20067;-71
2024/02/25 08:45:30;;;;;;;5.00;2.42;;;;;;;;;;5093591;28;20051;-72
2024/02/25 08:47:57;;;;;;;3.70;2.67;;;;;;;;;;5070021;28;20052;-72
2024/02/25 08:50:23;;;;;;;3.30;2.53;;;;;;;;;;5065588;28;20388;-71
2024/02/25 08:52:50;;;;;;;4.13;2.67;;;;;;;;;;5071951;28;20107;-71
2024/02/25 08:55:17;;;;;;;3.47;2.25;;;;;;;;;;5049518;28;20044;-72
2024/02/25 08:57:43;;;;;;;3.97;2.67;;;;;;;;;;5054257;28;20742;-73
2024/02/25 09:00:10;;;;;;;3.65;2.28;;;;;;;;;;5055537;28;20048;-72
2024/02/25 09:02:37;;;;;;;3.95;3.08;;;;;;;;;;5072649;28;20513;-73
2024/02/25 09:05:05;;;;;;;3.70;3.15;;;;;;;;;;5074817;28;20048;-73
2024/02/25 09:07:31;;;;;;;4.60;2.73;;;;;;;;;;5082749;28;20101;-72
2024/02/25 09:09:58;;;;;;;5.28;3.00;;;;;;;;;;5060668;28;20372;-71
2024/02/25 09:12:24;;;;;;;4.22;3.15;;;;;;;;;;5080175;28;20048;-72
2024/02/25 09:14:51;;;;;;;3.28;2.75;;;;;;;;;;5089266;28;20052;-71
2024/02/25 09:17:17;;;;;;;4.25;2.92;;;;;;;;;;5066649;28;20086;-71
2024/02/25 09:19:43;;;;;;;4.35;3.25;;;;;;;;;;5069939;28;20139;-73
2024/02/25 09:22:10;;;;;;;4.45;3.22;;;;;;;;;;5060053;28;20127;-71
2024/02/25 09:24:37;;;;;;;4.97;3.97;;;;;;;;;;5054889;28;20163;-71
2024/02/25 09:27:03;;;;;;;5.75;3.90;;;;;;;;;;5054205;28;20048;-71
2024/02/25 09:29:30;;;;;;;4.15;2.83;;;;;;;;;;5069381;28;20101;-71
2024/02/25 09:31:56;;;;;;;3.97;2.80;;;;;;;;;;5068352;28;20053;-71
2024/02/25 09:34:23;;;;;;;5.28;2.72;;;;;;;;;;5083638;28;20076;-72
2024/02/25 09:36:50;;;;;;;5.07;2.60;;;;;;;;;;5084144;28;20359;-72
2024/02/25 09:39:16;;;;;;;4.82;3.03;;;;;;;;;;5078599;28;20423;-72
2024/02/25 09:41:45;;;;;;;3.85;3.05;;;;;;;;;;5066357;28;20044;-74
2024/02/25 09:44:12;;;;;;;;;;;;;;;;;;5100056;28;20135;-72
2024/02/25 09:46:38;;;;;;;5.35;3.08;;;;;;;;;;5083950;28;19924;-71
2024/02/25 09:49:06;;;;;;;4.13;2.70;;;;;;;;;;5067819;28;20109;-71
2024/02/25 09:51:34;;;;;;;5.43;2.65;;;;;;;;;;5079712;28;20566;-72
2024/02/25 09:54:01;;;;;;;2.45;2.25;;;;;;;;;;5076013;28;20140;-71
2024/02/25 09:56:27;;;;;;;3.20;2.38;;;;;;;;;;5074033;28;20056;-74
2024/02/25 09:58:53;;;;;;;3.05;1.80;;;;;;;;;;5053758;28;20508;-73
2024/02/25 10:01:20;;;;;;;2.30;1.90;;;;;;;;;;5064270;28;20515;-71
2024/02/25 10:03:46;;;;;;;4.15;1.73;;;;;;;;;;5071260;28;20087;-73
2024/02/25 10:06:13;;;;;;;2.97;1.60;;;;;;;;;;5072729;28;20049;-74
2024/02/25 10:08:43;;;;;;;2.83;1.70;;;;;;;;;;5073414;28;20091;-72
2024/02/25 10:11:10;;;;;;;2.03;1.75;;;;;;;;;;5082493;28;20093;-70
2024/02/25 10:13:37;;;;;;;3.55;2.20;;;;;;;;;;5067939;28;20048;-72
2024/02/25 10:16:03;;;;;;;3.67;2.28;;;;;;;;;;5060786;28;20044;-69
2024/02/25 10:18:30;;;;;;;4.32;2.15;;;;;;;;;;5085378;28;20048;-71
2024/02/25 10:21:00;;;;;;;5.95;2.67;;;;;;;;;;5083722;28;20744;-70
2024/02/25 10:23:27;;;;;;;4.10;2.60;;;;;;;;;;5072182;28;20427;-71
2024/02/25 10:26:09;;;;;;;4.75;3.20;;;;;;;;;;5067248;28;20052;-71
2024/02/25 10:28:36;;;;;;;3.65;2.78;;;;;;;;;;5047355;28;20048;-71
2024/02/25 10:31:05;;;;;;;3.60;2.55;;;;;;;;;;5063650;28;20049;-72
2024/02/25 10:33:32;;;;;;;4.43;3.10;;;;;;;;;;5055586;28;20124;-71
2024/02/25 10:36:06;;;;;;;5.18;3.03;;;;;;;;;;5073844;28;20047;-72
2024/02/25 10:38:35;;;;;;;5.53;2.83;;;;;;;;;;5097676;28;20396;-72
2024/02/25 10:41:01;;;;;;;4.70;2.80;;;;;;;;;;5065755;28;20589;-72
2024/02/25 10:43:28;;;;;;;5.20;3.42;;;;;;;;;;5082500;28;20043;-72
2024/02/25 10:45:56;;;;;;;5.13;3.70;;;;;;;;;;5090759;28;20142;-72
2024/02/25 10:48:23;;;;;;;6.93;3.83;;;;;;;;;;5063756;28;20566;-73
2024/02/25 10:50:51;;;;;;;4.72;3.60;;;;;;;;;;5064420;28;20052;-72
2024/02/25 10:53:20;;;;;;;6.93;3.80;;;;;;;;;;5068212;28;20088;-72
2024/02/25 10:55:47;;;;;;;6.32;3.83;;;;;;;;;;5067622;28;20048;-72
2024/02/25 10:58:16;;;;;;;6.10;3.95;;;;;;;;;;5066201;28;20076;-74
2024/02/25 11:00:43;;;;;;;6.68;3.75;;;;;;;;;;5079895;28;20079;-72
2024/02/25 11:03:11;;;;;;;7.53;4.40;;;;;;;;;;5061429;28;20113;-72
2024/02/25 11:05:37;;;;;;;5.93;4.32;;;;;;;;;;5070820;28;20149;-73
2024/02/25 11:08:04;;;;;;;5.68;4.38;;;;;;;;;;5072568;28;20098;-71
2024/02/25 11:10:35;;;;;;;6.35;4.50;;;;;;;;;;5058609;28;20108;-77
2024/02/25 11:13:02;;;;;;;8.57;5.20;;;;;;;;;;5066577;28;20051;-77
2024/02/25 11:15:28;;;;;;;8.75;4.60;;;;;;;;;;5044844;28;20493;-77
2024/02/25 11:17:55;;;;;;;8.38;4.97;;;;;;;;;;5070019;28;20424;-76
2024/02/25 11:20:25;;;;;;;6.40;5.28;;;;;;;;;;5060926;28;20052;-75
2024/02/25 11:22:52;;;;;;;6.30;4.90;;;;;;;;;;5066649;28;20145;-77
2024/02/25 11:25:27;;;;;;;5.70;4.43;;;;;;;;;;5062650;28;20052;-77
2024/02/25 11:27:55;;;;;;;6.20;4.80;;;;;;;;;;5071978;28;20060;-77
2024/02/25 11:30:21;;;;;;;8.63;4.50;;;;;;;;;;5050809;28;20115;-77
2024/02/25 11:32:48;;;;;;;7.68;4.65;;;;;;;;;;5055867;28;20056;-77
2024/02/25 11:35:15;;;;;;;5.50;4.13;;;;;;;;;;5071084;28;20052;-76
2024/02/25 11:37:44;;;;;;;10.18;4.78;;;;;;;;;;5076467;28;20131;-77
2024/02/25 11:40:11;;;;;;;8.80;4.50;;;;;;;;;;5074592;28;20050;-76
2024/02/25 11:42:41;;;;;;;6.70;4.68;;;;;;;;;;5064328;28;20166;-77
2024/02/25 11:45:08;;;;;;;8.77;4.90;;;;;;;;;;5071696;28;20552;-77
2024/02/25 11:47:36;;;;;;;6.70;4.70;;;;;;;;;;5075625;28;20052;-76
2024/02/25 11:50:03;;;;;;;9.60;5.05;;;;;;;;;;5064227;28;20156;-76
2024/02/25 11:52:29;;;;;;;7.45;4.53;;;;;;;;;;5069973;28;20435;-78
2024/02/25 11:54:56;;;;;;;7.18;4.35;;;;;;;;;;5079624;28;20077;-77
2024/02/25 11:57:23;;;;;;;7.45;5.07;;;;;;;;;;5070428;28;20052;-77
2024/02/25 11:59:51;;;;;;;9.13;4.78;;;;;;;;;;5060438;28;20139;-77
2024/02/25 12:02:17;;;;;;;8.98;5.15;;;;;;;;;;5071939;28;20043;-78
2024/02/25 12:04:44;;;;;;;7.25;4.78;;;;;;;;;;5078086;28;20048;-77
2024/02/25 12:07:10;;;;;;;7.40;5.50;;;;;;;;;;5092068;28;20117;-76
2024/02/25 12:09:38;;;;;;;5.57;3.97;;;;;;;;;;5070384;28;20503;-74
2024/02/25 12:12:06;;;;;;;7.07;4.60;;;;;;;;;;5058012;28;20542;-77
2024/02/25 12:14:37;;;;;;;5.45;4.10;;;;;;;;;;5056028;28;20772;-75
2024/02/25 12:17:04;;;;;;;7.00;3.95;;;;;;;;;;5076417;28;20090;-77
2024/02/25 12:19:30;;;;;;;5.20;3.58;;;;;;;;;;5071155;28;20160;-72
2024/02/25 12:21:59;;;;;;;4.93;3.15;;;;;;;;;;5077609;28;20056;-72
2024/02/25 12:24:25;;;;;;;4.25;3.60;;;;;;;;;;5063171;28;20044;-71
2024/02/25 12:26:54;;;;;;;4.18;2.10;;;;;;;;;;5058753;28;20048;-71
2024/02/25 12:29:27;;;;;;;4.32;2.33;;;;;;;;;;5075709;28;20048;-71
2024/02/25 12:31:56;;;;;;;3.25;1.63;;;;;;;;;;5080094;28;20573;-72
2024/02/25 12:34:25;;;;;;;2.80;1.30;;;;;;;;;;5073687;28;20048;-71
2024/02/25 12:36:55;;;;;;;4.22;1.30;;;;;;;;;;5072168;28;20151;-71
2024/02/25 12:39:22;;;;;;;2.30;1.42;;;;;;;;;;5086105;28;20082;-72
2024/02/25 12:42:01;;;;;;;5.75;2.00;;;;;;;;;;5089016;28;20464;-71
2024/02/25 12:44:30;;;;;;;3.58;2.50;;;;;;;;;;5084977;28;20492;-72
2024/02/25 12:46:57;;;;;;;3.05;1.67;;;;;;;;;;5082716;28;20048;-72
2024/02/25 12:49:24;;;;;;;3.67;2.00;;;;;;;;;;5060201;28;20045;-71
2024/02/25 12:51:51;;;;;;;2.50;1.55;;;;;;;;;;5087696;28;20473;-71
2024/02/25 12:54:17;;;;;;;2.83;1.60;;;;;;;;;;5079428;28;20118;-71
2024/02/25 12:56:44;;;;;;;3.22;1.55;;;;;;;;;;5052635;28;20044;-72
2024/02/25 12:59:11;;;;;;;3.58;1.38;;;;;;;;;;5078389;28;20048;-71
2024/02/25 13:01:42;;;;;;;1.85;1.27;;;;;;;;;;5088071;28;20052;-72
2024/02/25 13:04:09;;;;;;;2.60;1.42;;;;;;;;;;5077669;28;20078;-72
2024/02/25 13:06:36;;;;;;;5.25;1.65;;;;;;;;;;5086669;28;20060;-71
2024/02/25 13:09:05;;;;;;;3.40;1.67;;;;;;;;;;5082299;28;20420;-71
2024/02/25 13:11:31;;;;;;;6.38;2.72;;;;;;;;;;5067494;28;20475;-70
2024/02/25 13:13:58;;;;;;;4.00;2.40;;;;;;;;;;5072455;28;20071;-72
2024/02/25 13:16:25;;;;;;;3.42;1.70;;;;;;;;;;5069662;28;20458;-72
2024/02/25 13:18:51;;;;;;;2.80;1.55;;;;;;;;;;5073219;28;20109;-72
2024/02/25 13:21:18;;;;;;;2.25;1.30;;;;;;;;;;5063031;28;20135;-72
2024/02/25 13:23:45;;;;;;;2.92;1.75;;;;;;;;;;5062711;28;20097;-72
2024/02/25 13:26:11;;;;;;;3.78;1.90;;;;;;;;;;5084132;28;20045;-72
2024/02/25 13:28:38;;;;;;;3.80;1.60;;;;;;;;;;5070806;28;20053;-72
2024/02/25 13:31:04;;;;;;;3.35;1.80;;;;;;;;;;5072822;28;20049;-76
2024/02/25 13:33:31;;;;;;;5.00;2.40;;;;;;;;;;5074997;28;20060;-77
2024/02/25 13:35:59;;;;;;;4.20;1.60;;;;;;;;;;5066894;28;20119;-79
2024/02/25 13:38:26;;;;;;;4.65;1.85;;;;;;;;;;5066166;28;20459;-78
2024/02/25 13:40:52;;;;;;;3.17;2.20;;;;;;;;;;5066787;28;20048;-79
2024/02/25 13:43:18;;;;;;;3.13;1.90;;;;;;;;;;5079836;28;20048;-78
2024/02/25 13:45:52;;;;;;;2.80;1.80;;;;;;;;;;5084212;28;20538;-80
2024/02/25 13:48:19;;;;;;;1.90;1.00;;;;;;;;;;5082377;28;20044;-79
2024/02/25 13:50:46;;;;;;;1.20;0.73;;;;;;;;;;5073226;28;20053;-79
2024/02/25 13:53:12;;;;;;;1.83;0.70;;;;;;;;;;5064637;28;20308;-78
2024/02/25 13:55:43;;;;;;;1.85;0.75;;;;;;;;;;5079735;28;20041;-75
2024/02/25 13:58:11;;;;;;;3.00;0.80;;;;;;;;;;5060130;28;20415;-77
2024/02/25 14:00:37;;;;;;;3.25;1.00;;;;;;;;;;5088994;28;20048;-77
2024/02/25 14:03:04;;;;;;;1.38;0.70;;;;;;;;;;5076009;28;20056;-77
2024/02/25 14:05:31;;;;;;;4.18;0.75;;;;;;;;;;5076899;28;20099;-80
2024/02/25 14:07:57;;;;;;;1.33;0.80;;;;;;;;;;5076024;28;20045;-79
2024/02/25 14:10:24;;;;;;;3.53;0.90;;;;;;;;;;5094633;28;20054;-77
2024/02/25 14:12:50;;;;;;;3.45;0.80;;;;;;;;;;5084085;28;20054;-78
2024/02/25 14:15:17;;;;;;;3.22;0.82;;;;;;;;;;5076987;28;20056;-78
2024/02/25 14:17:44;;;;;;;3.80;1.00;;;;;;;;;;5068569;28;20583;-76
2024/02/25 14:20:11;;;;;;;4.32;0.80;;;;;;;;;;5054432;28;20043;-78
2024/02/25 14:22:38;;;;;;;2.67;0.95;;;;;;;;;;5077721;28;20053;-78
2024/02/25 14:25:04;;;;;;;3.78;0.98;;;;;;;;;;5062740;28;20040;-79
2024/02/25 14:27:31;;;;;;;2.80;1.80;;;;;;;;;;5069846;28;20052;-81
2024/02/25 14:29:59;;;;;;;3.22;1.48;;;;;;;;;;5077030;28;20070;-81
2024/02/25 14:32:26;;;;;;;3.30;1.03;;;;;;;;;;5069912;28;20044;-79
2024/02/25 14:34:52;;;;;;;2.95;1.05;;;;;;;;;;5069202;28;20512;-78
2024/02/25 14:37:19;;;;;;;1.92;1.17;;;;;;;;;;5086566;28;20048;-81
2024/02/25 14:39:45;;;;;;;2.67;1.20;;;;;;;;;;5082262;28;20040;-81
2024/02/25 14:42:22;;;;;;;3.35;1.15;;;;;;;;;;5086916;28;20143;-76